logo
Search for airport 
image banner adimage banner adimage banner ad
image banner ad

MSLG - La Gloria

Located in , El Salvador

ICAO - MSLG, IATA -

Data provided by Airmate  

General information

Coordinates: N13°42'56" W90°2'56"
Elevation is 2163 feet MSL.
 
View others Airports in San Salvador

Operational data

Special qualification required
Current time UTC:
Current local time:
Weather at : - ( 0 km )
METAR: KQFX 162010Z AUTO 25001KT 9000 OVC023 23/23 A2980 RMK A02 TSNO
View NOTAMs / SUP AIP / TFR affecting this airport [VIEW]
Communications frequencies: [VIEW]

Runways:

Airport contact information

Address: El Salvador

Satellite view of MSLG